createdAt,value
2023-01-17T00:02:15.197Z,4.20
2023-01-17T00:05:01.650Z,21.80
2023-01-17T00:07:47.645Z,43.60
2023-01-17T00:10:18.486Z,38.70
2023-01-17T00:13:01.872Z,13.90
2023-01-17T00:15:31.164Z,18.10
2023-01-17T00:17:59.498Z,6.10
2023-01-17T00:20:48.449Z,10.60
2023-01-17T00:23:38.222Z,7.00
2023-01-17T00:26:26.482Z,17.70
2023-01-17T00:28:53.762Z,28.50
2023-01-17T00:31:21.205Z,23.30
2023-01-17T00:33:48.162Z,8.20
2023-01-17T00:36:15.282Z,6.60
2023-01-17T00:38:42.642Z,5.80
2023-01-17T00:41:15.142Z,5.60
2023-01-17T00:44:01.162Z,4.80
2023-01-17T00:46:46.870Z,6.00
2023-01-17T00:49:32.642Z,5.40
2023-01-17T00:52:18.892Z,6.00
2023-01-17T00:55:04.310Z,7.60
2023-01-17T00:57:50.186Z,7.70
2023-01-17T01:00:39.327Z,7.80
2023-01-17T01:03:30.758Z,7.60
2023-01-17T01:06:16.860Z,7.90
2023-01-17T01:09:02.957Z,5.60
2023-01-17T01:11:49.208Z,7.70
2023-01-17T01:14:35.682Z,6.40
2023-01-17T01:17:22.081Z,7.50
2023-01-17T01:20:08.269Z,6.80
2023-01-17T01:22:54.227Z,6.80
2023-01-17T01:25:40.527Z,6.40
2023-01-17T01:28:30.894Z,6.10
2023-01-17T01:31:21.305Z,7.30
2023-01-17T01:33:48.839Z,6.70
2023-01-17T01:36:15.809Z,14.60
2023-01-17T01:38:43.126Z,9.10
2023-01-17T01:41:10.242Z,8.00
2023-01-17T01:43:44.412Z,7.70
2023-01-17T01:46:37.045Z,8.60
2023-01-17T01:49:12.506Z,7.10
2023-01-17T01:51:43.644Z,6.20
2023-01-17T01:54:34.148Z,6.70
2023-01-17T01:57:06.101Z,7.00
2023-01-17T01:59:35.168Z,5.80
2023-01-17T02:02:02.864Z,6.60
2023-01-17T02:04:29.898Z,7.70
2023-01-17T02:07:13.602Z,6.70
2023-01-17T02:09:41.442Z,6.10
2023-01-17T02:12:10.516Z,4.50
2023-01-17T02:14:37.740Z,5.20
2023-01-17T02:17:16.151Z,4.20
2023-01-17T02:20:02.066Z,6.40
2023-01-17T02:23:05.022Z,5.30
2023-01-17T02:25:43.414Z,6.00
2023-01-17T02:28:26.805Z,5.30
2023-01-17T02:31:05.359Z,4.50
2023-01-17T02:33:53.690Z,5.70
2023-01-17T02:36:26.569Z,4.10
2023-01-17T02:39:05.851Z,3.60
2023-01-17T02:41:46.295Z,4.60
2023-01-17T02:44:18.565Z,5.10
2023-01-17T02:47:28.125Z,3.00
2023-01-17T02:50:01.777Z,2.50
2023-01-17T02:52:50.354Z,4.20
2023-01-17T02:55:42.208Z,3.60
2023-01-17T02:58:24.906Z,3.80
2023-01-17T03:01:07.904Z,3.90
2023-01-17T03:04:10.328Z,3.20
2023-01-17T03:06:45.085Z,3.60
2023-01-17T03:09:15.079Z,3.30
2023-01-17T03:11:43.299Z,3.50
2023-01-17T03:14:10.341Z,3.50
2023-01-17T03:16:37.326Z,3.70
2023-01-17T03:19:04.841Z,4.10
2023-01-17T03:21:31.803Z,3.60
2023-01-17T03:23:58.746Z,3.90
2023-01-17T03:26:25.683Z,3.40
2023-01-17T03:28:52.644Z,3.70
2023-01-17T03:31:22.358Z,3.80
2023-01-17T03:33:49.371Z,4.80
2023-01-17T03:36:16.444Z,4.10
2023-01-17T03:38:43.365Z,4.90
2023-01-17T03:41:10.332Z,4.50
2023-01-17T03:43:37.503Z,5.70
2023-01-17T03:46:07.432Z,3.50
2023-01-17T03:48:34.727Z,6.90
2023-01-17T03:51:01.763Z,9.00
2023-01-17T03:53:28.723Z,6.10
2023-01-17T03:55:55.545Z,6.50
2023-01-17T03:58:22.374Z,6.00
2023-01-17T04:00:49.388Z,5.70
2023-01-17T04:03:16.366Z,5.30
2023-01-17T04:05:43.208Z,5.50
2023-01-17T04:08:10.164Z,5.10
2023-01-17T04:10:36.993Z,5.70
2023-01-17T04:13:03.970Z,6.90
2023-01-17T04:15:31.281Z,5.90
2023-01-17T04:17:58.430Z,5.30
2023-01-17T04:20:37.798Z,6.20
2023-01-17T04:23:05.912Z,17.50
2023-01-17T04:25:33.390Z,13.10
2023-01-17T04:28:02.166Z,10.50
2023-01-17T04:30:29.991Z,18.90
2023-01-17T04:32:57.907Z,6.10
2023-01-17T04:35:25.464Z,5.60
2023-01-17T04:37:53.254Z,5.10
2023-01-17T04:40:20.685Z,6.90
2023-01-17T04:42:48.720Z,24.10
2023-01-17T04:45:16.381Z,21.20
2023-01-17T04:47:43.303Z,21.30
2023-01-17T04:50:11.622Z,19.40
2023-01-17T04:52:38.609Z,31.70
2023-01-17T04:55:06.876Z,32.30
2023-01-17T04:57:33.745Z,45.10
2023-01-17T05:00:00.633Z,52.80
2023-01-17T05:02:27.496Z,53.70
2023-01-17T05:04:54.856Z,23.10
2023-01-17T05:07:21.764Z,23.10
2023-01-17T05:09:48.723Z,21.10
2023-01-17T05:12:15.684Z,52.40
2023-01-17T05:14:42.690Z,25.00
2023-01-17T05:17:20.953Z,21.00
2023-01-17T05:19:48.151Z,26.90
2023-01-17T05:22:15.671Z,31.50
2023-01-17T05:24:47.225Z,43.10
2023-01-17T05:27:15.454Z,41.10
2023-01-17T05:29:42.677Z,34.10
2023-01-17T05:32:10.096Z,28.60
2023-01-17T05:34:37.443Z,22.00
2023-01-17T05:37:04.537Z,10.50
2023-01-17T05:39:31.469Z,15.20
2023-01-17T05:41:59.949Z,20.90
2023-01-17T05:44:28.356Z,8.10
2023-01-17T05:46:56.601Z,7.70
2023-01-17T05:49:24.651Z,6.50
2023-01-17T05:51:54.728Z,7.30
2023-01-17T05:54:22.407Z,36.80
2023-01-17T05:56:49.535Z,8.20
2023-01-17T05:59:20.545Z,6.30
2023-01-17T06:01:54.849Z,7.90
2023-01-17T06:04:22.250Z,6.00
2023-01-17T06:06:49.362Z,7.50
2023-01-17T06:09:16.401Z,5.00
2023-01-17T06:11:43.635Z,6.40
2023-01-17T06:14:10.688Z,6.50
2023-01-17T06:16:37.733Z,8.00
2023-01-17T06:19:04.683Z,10.50
2023-01-17T06:21:31.771Z,11.70
2023-01-17T06:23:58.864Z,12.20
2023-01-17T06:26:25.843Z,13.80
2023-01-17T06:28:53.160Z,12.60
2023-01-17T06:31:20.252Z,30.40
2023-01-17T06:33:47.610Z,20.80
2023-01-17T06:36:14.607Z,13.30
2023-01-17T06:38:41.557Z,12.70
2023-01-17T06:41:10.229Z,15.10
2023-01-17T06:43:37.495Z,16.10
2023-01-17T06:46:05.069Z,17.40
2023-01-17T06:48:32.289Z,21.40
2023-01-17T06:50:59.333Z,19.80
2023-01-17T06:53:26.367Z,24.40
2023-01-17T06:55:58.107Z,31.60
2023-01-17T06:58:25.292Z,21.10
2023-01-17T07:00:52.763Z,15.00
2023-01-17T07:03:25.622Z,13.30
2023-01-17T07:05:53.586Z,13.30
2023-01-17T07:08:20.955Z,15.20
2023-01-17T07:10:49.127Z,14.50
2023-01-17T07:13:16.774Z,17.10
2023-01-17T07:15:44.173Z,19.90
2023-01-17T07:18:11.273Z,17.30
2023-01-17T07:20:38.922Z,18.50
2023-01-17T07:23:06.603Z,23.40
2023-01-17T07:25:34.170Z,18.50
2023-01-17T07:28:01.197Z,43.00
2023-01-17T07:30:28.490Z,20.10
2023-01-17T07:32:56.748Z,16.90
2023-01-17T07:35:26.978Z,11.90
2023-01-17T07:37:55.145Z,15.30
2023-01-17T07:40:23.061Z,14.50
2023-01-17T07:42:50.483Z,14.30
2023-01-17T07:45:17.584Z,17.10
2023-01-17T07:47:45.052Z,30.40
2023-01-17T07:50:13.967Z,15.90
2023-01-17T07:52:41.126Z,14.30
2023-01-17T07:55:09.336Z,24.20
2023-01-17T07:57:36.645Z,15.70
2023-01-17T08:00:05.359Z,12.40
2023-01-17T08:02:32.618Z,11.60
2023-01-17T08:04:59.844Z,14.10
2023-01-17T08:07:26.967Z,12.40
2023-01-17T08:09:55.143Z,8.60
2023-01-17T08:12:22.139Z,11.20
2023-01-17T08:14:49.449Z,9.80
2023-01-17T08:17:17.460Z,10.50
2023-01-17T08:19:45.405Z,10.00
2023-01-17T08:22:12.750Z,25.80
2023-01-17T08:24:39.739Z,13.20
2023-01-17T08:27:07.207Z,11.60
2023-01-17T08:29:34.189Z,10.70
2023-01-17T08:32:01.210Z,10.50
2023-01-17T08:34:28.378Z,10.30
2023-01-17T08:36:55.772Z,17.30
2023-01-17T08:39:22.687Z,15.30
2023-01-17T08:41:49.937Z,10.30
2023-01-17T08:44:16.911Z,10.90
2023-01-17T08:46:45.193Z,11.20
2023-01-17T08:49:12.741Z,8.20
2023-01-17T08:51:40.507Z,8.70
2023-01-17T08:54:07.799Z,13.00
2023-01-17T08:56:35.862Z,10.30
2023-01-17T08:59:03.514Z,23.30
2023-01-17T09:01:30.737Z,17.00
2023-01-17T09:03:57.940Z,12.30
2023-01-17T09:06:24.752Z,18.00
2023-01-17T09:08:52.551Z,13.00
2023-01-17T09:11:19.808Z,12.70
2023-01-17T09:13:46.870Z,15.00
2023-01-17T09:16:13.985Z,12.10
2023-01-17T09:18:41.132Z,12.40
2023-01-17T09:21:17.041Z,12.20
2023-01-17T09:23:45.087Z,11.00
2023-01-17T09:26:32.711Z,11.20
2023-01-17T09:28:59.755Z,9.20
2023-01-17T09:31:28.135Z,14.30
2023-01-17T09:33:56.901Z,10.60
2023-01-17T09:36:29.106Z,9.90
2023-01-17T09:38:58.463Z,9.10
2023-01-17T09:41:30.815Z,8.10
2023-01-17T09:44:06.600Z,9.00
2023-01-17T09:46:40.609Z,8.40
2023-01-17T09:49:13.488Z,5.30
2023-01-17T09:51:42.569Z,7.40
2023-01-17T09:54:24.254Z,11.10
2023-01-17T09:57:18.143Z,9.40
2023-01-17T10:00:04.179Z,8.90
2023-01-17T10:03:11.168Z,9.60
2023-01-17T10:05:58.815Z,10.00
2023-01-17T10:08:44.936Z,7.70
2023-01-17T10:11:30.207Z,8.10
2023-01-17T10:14:03.221Z,5.20
2023-01-17T10:16:48.151Z,7.10
2023-01-17T10:19:32.075Z,6.60
2023-01-17T10:22:09.270Z,6.90
2023-01-17T10:25:05.015Z,8.10
2023-01-17T10:28:00.232Z,9.30
2023-01-17T10:30:43.882Z,7.90
2023-01-17T10:33:21.780Z,7.80
2023-01-17T10:35:54.084Z,7.30
2023-01-17T10:38:32.954Z,7.50
2023-01-17T10:41:06.264Z,6.30
2023-01-17T10:43:45.936Z,7.70
2023-01-17T10:46:20.446Z,5.90
2023-01-17T10:48:50.861Z,6.10
2023-01-17T10:51:50.290Z,5.50
2023-01-17T10:54:45.601Z,8.10
2023-01-17T10:57:25.997Z,8.10
2023-01-17T10:59:54.498Z,6.30
2023-01-17T11:02:30.376Z,5.70
2023-01-17T11:05:03.912Z,5.70
2023-01-17T11:07:31.540Z,7.10
2023-01-17T11:09:59.669Z,6.20
2023-01-17T11:12:34.054Z,7.80
2023-01-17T11:15:27.671Z,7.90
2023-01-17T11:18:17.262Z,7.30
2023-01-17T11:20:45.279Z,4.70
2023-01-17T11:23:27.116Z,6.40
2023-01-17T11:26:03.052Z,6.70
2023-01-17T11:28:32.745Z,4.90
2023-01-17T11:31:09.437Z,4.30
2023-01-17T11:33:45.642Z,5.80
2023-01-17T11:36:32.154Z,6.30
2023-01-17T11:39:04.986Z,6.40
2023-01-17T11:41:41.543Z,4.10
2023-01-17T11:44:22.065Z,6.30
2023-01-17T11:47:07.643Z,7.00
2023-01-17T11:49:34.593Z,6.60
2023-01-17T11:52:08.195Z,5.40
2023-01-17T11:54:40.850Z,4.90
2023-01-17T11:57:21.541Z,5.70
2023-01-17T12:03:07.066Z,5.90
2023-01-17T12:06:08.899Z,8.30
2023-01-17T12:08:39.634Z,7.70
2023-01-17T12:11:23.343Z,6.10
2023-01-17T12:14:23.324Z,8.60
2023-01-17T12:16:50.406Z,7.20
2023-01-17T12:19:54.978Z,6.90
2023-01-17T12:22:48.383Z,8.00
2023-01-17T12:25:28.775Z,7.60
2023-01-17T12:28:35.222Z,7.20
2023-01-17T12:31:19.720Z,4.80
2023-01-17T12:33:55.860Z,7.80
2023-01-17T12:36:31.339Z,5.80
2023-01-17T12:39:03.803Z,7.20
2023-01-17T12:41:40.295Z,5.00
2023-01-17T12:44:11.871Z,4.70
2023-01-17T12:46:49.292Z,4.90
2023-01-17T12:49:35.299Z,5.30
2023-01-17T12:52:34.267Z,5.80
2023-01-17T12:55:12.350Z,5.70
2023-01-17T12:57:45.681Z,3.80
2023-01-17T13:00:25.740Z,3.60
2023-01-17T13:03:27.866Z,5.10
2023-01-17T13:05:58.076Z,4.10
2023-01-17T13:08:47.065Z,3.80
2023-01-17T13:11:53.482Z,4.10
2023-01-17T13:14:20.912Z,4.80
2023-01-17T13:16:59.171Z,4.00
2023-01-17T13:20:01.943Z,4.10
2023-01-17T13:22:30.740Z,3.90
2023-01-17T13:25:09.386Z,3.90
2023-01-17T13:28:03.483Z,3.80
2023-01-17T13:30:43.769Z,5.30
2023-01-17T13:34:07.740Z,3.60
2023-01-17T13:36:50.916Z,3.50
2023-01-17T13:39:42.979Z,3.70
2023-01-17T13:42:18.993Z,2.70
2023-01-17T13:44:46.938Z,3.10
2023-01-17T13:47:19.701Z,3.60
2023-01-17T13:49:50.098Z,2.90
2023-01-17T13:52:19.909Z,4.50
2023-01-17T13:54:53.958Z,2.70
2023-01-17T13:57:28.536Z,3.30
2023-01-17T13:59:58.321Z,3.40
2023-01-17T14:02:38.787Z,3.70
2023-01-17T14:05:10.701Z,4.20
2023-01-17T14:07:48.309Z,2.90
2023-01-17T14:10:31.598Z,3.30
2023-01-17T14:12:59.598Z,4.00
2023-01-17T14:15:30.229Z,5.80
2023-01-17T14:18:06.473Z,5.80
2023-01-17T14:20:43.276Z,3.50
2023-01-17T14:23:34.217Z,3.50
2023-01-17T14:26:19.979Z,3.60
2023-01-17T14:28:47.297Z,3.40
2023-01-17T14:31:17.672Z,3.00
2023-01-17T14:33:45.070Z,3.50
2023-01-17T14:36:25.793Z,3.00
2023-01-17T14:38:53.101Z,3.50
2023-01-17T14:41:26.625Z,5.20
2023-01-17T14:43:55.204Z,4.20
2023-01-17T14:46:33.132Z,5.40
2023-01-17T14:49:04.333Z,4.70
2023-01-17T14:51:35.519Z,5.30
2023-01-17T14:54:06.737Z,4.70
2023-01-17T14:56:34.485Z,19.80
2023-01-17T14:59:17.684Z,10.00
2023-01-17T15:02:06.117Z,5.70
2023-01-17T15:04:40.015Z,22.40
2023-01-17T15:07:08.157Z,14.30
2023-01-17T15:09:37.858Z,23.10
2023-01-17T15:12:08.723Z,44.80
2023-01-17T15:14:40.486Z,11.60
2023-01-17T15:17:24.925Z,19.30
2023-01-17T15:20:15.927Z,28.90
2023-01-17T15:22:43.771Z,8.00
2023-01-17T15:25:13.027Z,6.70
2023-01-17T15:27:41.529Z,5.90
2023-01-17T15:30:13.721Z,7.60
2023-01-17T15:32:40.800Z,5.20
2023-01-17T15:35:18.298Z,5.20
2023-01-17T15:37:45.454Z,3.60
2023-01-17T15:40:20.533Z,5.00
2023-01-17T15:42:51.081Z,5.00
2023-01-17T15:45:28.330Z,4.20
2023-01-17T15:47:59.547Z,4.90
2023-01-17T15:50:31.238Z,6.80
2023-01-17T15:53:07.242Z,7.10
2023-01-17T15:55:53.749Z,5.70
2023-01-17T15:58:35.136Z,6.00
2023-01-17T16:01:02.743Z,5.50
2023-01-17T16:03:31.252Z,8.00
2023-01-17T16:06:01.018Z,7.10
2023-01-17T16:08:31.416Z,6.90
2023-01-17T16:11:06.426Z,5.00
2023-01-17T16:13:38.850Z,6.40
2023-01-17T16:16:19.619Z,5.60
2023-01-17T16:18:48.942Z,5.30
2023-01-17T16:21:22.964Z,9.40
2023-01-17T16:23:50.367Z,17.00
2023-01-17T16:26:17.770Z,36.00
2023-01-17T16:28:46.127Z,35.40
2023-01-17T16:31:19.200Z,45.20
2023-01-17T16:33:50.998Z,20.50
2023-01-17T16:36:18.343Z,11.80
2023-01-17T16:38:48.712Z,7.90
2023-01-17T16:41:15.753Z,8.60
2023-01-17T16:43:43.117Z,8.30
2023-01-17T16:46:12.143Z,16.00
2023-01-17T16:48:39.758Z,14.50
2023-01-17T16:51:08.202Z,13.00
2023-01-17T16:53:36.791Z,15.10
2023-01-17T16:56:12.395Z,15.70
2023-01-17T16:58:40.932Z,14.70
2023-01-17T17:01:16.626Z,16.20
2023-01-17T17:03:44.869Z,17.00
2023-01-17T17:06:18.734Z,18.10
2023-01-17T17:08:59.784Z,17.80
2023-01-17T17:11:34.701Z,17.20
2023-01-17T17:14:02.839Z,15.50
2023-01-17T17:16:30.954Z,27.40
2023-01-17T17:19:00.570Z,22.10
2023-01-17T17:21:30.032Z,22.90
2023-01-17T17:23:59.416Z,19.40
2023-01-17T17:26:37.429Z,19.30
2023-01-17T17:29:06.534Z,16.00
2023-01-17T17:31:34.244Z,15.40
2023-01-17T17:34:02.459Z,15.50
2023-01-17T17:36:32.556Z,15.20
2023-01-17T17:38:59.561Z,18.50
2023-01-17T17:41:35.103Z,18.20
2023-01-17T17:44:04.188Z,18.50
2023-01-17T17:46:32.163Z,21.80
2023-01-17T17:49:00.175Z,25.70
2023-01-17T17:51:30.890Z,24.30
2023-01-17T17:54:06.772Z,22.20
2023-01-17T17:56:35.239Z,18.90
2023-01-17T17:59:04.186Z,20.30
2023-01-17T18:01:31.746Z,22.70
2023-01-17T18:04:03.304Z,16.80
2023-01-17T18:06:31.232Z,13.00
2023-01-17T18:09:13.951Z,15.80
2023-01-17T18:11:43.346Z,16.00
2023-01-17T18:14:13.967Z,15.90
2023-01-17T18:16:43.880Z,15.40
2023-01-17T18:19:23.279Z,13.40
2023-01-17T18:21:51.952Z,15.80
2023-01-17T18:24:24.304Z,19.90
2023-01-17T18:26:52.833Z,22.00
2023-01-17T18:29:22.148Z,21.20
2023-01-17T18:31:50.537Z,24.40
2023-01-17T18:34:23.369Z,25.00
2023-01-17T18:36:52.190Z,29.40
2023-01-17T18:39:22.450Z,34.20
2023-01-17T18:41:50.267Z,36.40
2023-01-17T18:44:19.192Z,44.40
2023-01-17T18:46:48.485Z,34.10
2023-01-17T18:49:21.806Z,37.00
2023-01-17T18:51:51.726Z,30.00
2023-01-17T18:54:20.965Z,41.60
2023-01-17T18:56:48.570Z,40.80
2023-01-17T18:59:18.755Z,48.00
2023-01-17T19:01:46.351Z,53.90
2023-01-17T19:04:15.290Z,61.60
2023-01-17T19:06:44.753Z,76.40
2023-01-17T19:09:13.871Z,62.50
2023-01-17T19:11:43.390Z,54.40
2023-01-17T19:14:12.856Z,54.70
2023-01-17T19:16:42.010Z,62.80
2023-01-17T19:19:12.476Z,54.00
2023-01-17T19:21:40.099Z,51.80
2023-01-17T19:24:07.865Z,42.20
2023-01-17T19:26:35.093Z,25.20
2023-01-17T19:29:05.738Z,21.50
2023-01-17T19:31:39.937Z,16.40
2023-01-17T19:34:07.234Z,14.70
2023-01-17T19:36:36.611Z,20.60
2023-01-17T19:39:06.892Z,23.80
2023-01-17T19:41:36.467Z,23.50
2023-01-17T19:44:07.703Z,22.10
2023-01-17T19:46:36.121Z,23.30
2023-01-17T19:49:04.679Z,22.80
2023-01-17T19:51:44.206Z,19.70
2023-01-17T19:54:16.127Z,20.40
2023-01-17T19:56:43.618Z,15.20
2023-01-17T19:59:13.415Z,17.30
2023-01-17T20:01:40.721Z,15.40
2023-01-17T20:04:08.261Z,14.80
2023-01-17T20:06:36.858Z,20.40
2023-01-17T20:09:05.848Z,19.90
2023-01-17T20:11:33.347Z,18.30
2023-01-17T20:14:01.056Z,21.20
2023-01-17T20:16:30.462Z,19.30
2023-01-17T20:18:59.493Z,17.30
2023-01-17T20:21:28.474Z,14.40
2023-01-17T20:23:58.032Z,22.30
2023-01-17T20:26:31.475Z,22.70
2023-01-17T20:28:59.023Z,23.80
2023-01-17T20:31:27.702Z,19.40
2023-01-17T20:33:56.284Z,23.90
2023-01-17T20:36:26.900Z,24.50
2023-01-17T20:38:54.891Z,25.30
2023-01-17T20:41:29.191Z,22.70
2023-01-17T20:43:58.518Z,23.60
2023-01-17T20:46:27.518Z,24.40
2023-01-17T20:48:56.741Z,25.50
2023-01-17T20:51:26.717Z,27.70
2023-01-17T20:54:03.001Z,26.80
2023-01-17T20:56:34.912Z,29.10
2023-01-17T20:59:07.862Z,30.70
2023-01-17T21:01:35.812Z,28.40
2023-01-17T21:04:03.638Z,26.70
2023-01-17T21:06:31.470Z,26.70
2023-01-17T21:09:00.397Z,23.50
2023-01-17T21:11:28.247Z,27.60
2023-01-17T21:13:56.486Z,27.10
2023-01-17T21:16:24.212Z,26.00
2023-01-17T21:18:52.560Z,26.50
2023-01-17T21:21:22.358Z,30.00
2023-01-17T21:23:51.291Z,29.50
2023-01-17T21:26:19.982Z,29.20
2023-01-17T21:28:48.761Z,27.00
2023-01-17T21:31:23.466Z,37.90
2023-01-17T21:34:11.507Z,38.50
2023-01-17T21:36:40.909Z,35.20
2023-01-17T21:39:16.502Z,28.50
2023-01-17T21:41:46.228Z,28.70
2023-01-17T21:44:20.396Z,30.80
2023-01-17T21:46:48.781Z,36.90
2023-01-17T21:49:16.099Z,46.70
2023-01-17T21:52:04.337Z,38.70
2023-01-17T21:54:50.865Z,24.90
2023-01-17T21:57:39.938Z,19.00
2023-01-17T22:00:12.414Z,29.30
2023-01-17T22:02:40.210Z,27.80
2023-01-17T22:05:09.214Z,22.60
2023-01-17T22:07:36.538Z,45.50
2023-01-17T22:10:03.514Z,34.10
2023-01-17T22:12:30.497Z,38.30
2023-01-17T22:14:57.601Z,43.90
2023-01-17T22:17:24.854Z,40.10
2023-01-17T22:19:51.936Z,37.70
2023-01-17T22:22:19.057Z,35.90
2023-01-17T22:24:46.088Z,34.10
2023-01-17T22:27:14.189Z,59.30
2023-01-17T22:29:41.516Z,54.00
2023-01-17T22:32:08.817Z,62.90
2023-01-17T22:34:36.214Z,64.10
2023-01-17T22:37:04.983Z,67.60
2023-01-17T22:39:32.156Z,57.50
2023-01-17T22:42:00.065Z,61.90
2023-01-17T22:44:27.272Z,46.70
2023-01-17T22:46:54.102Z,36.10
2023-01-17T22:49:23.853Z,34.80
2023-01-17T22:51:51.303Z,63.00
2023-01-17T22:54:19.777Z,51.60
2023-01-17T22:56:47.067Z,29.40
2023-01-17T22:59:14.182Z,24.90
2023-01-17T23:01:41.317Z,27.60
2023-01-17T23:04:12.264Z,32.20
2023-01-17T23:09:11.164Z,44.10
2023-01-17T23:11:39.642Z,60.10
2023-01-17T23:14:23.443Z,61.90
2023-01-17T23:17:21.211Z,64.70
2023-01-17T23:19:51.323Z,60.30
2023-01-17T23:22:23.874Z,45.20
2023-01-17T23:25:02.577Z,68.70
2023-01-17T23:27:57.783Z,62.70
2023-01-17T23:30:34.896Z,34.20
2023-01-17T23:33:11.561Z,39.90
2023-01-17T23:35:42.070Z,27.80
2023-01-17T23:38:27.166Z,25.50
2023-01-17T23:41:22.413Z,26.60
2023-01-17T23:43:53.833Z,24.00
2023-01-17T23:46:21.865Z,31.50
2023-01-17T23:48:49.618Z,24.20
2023-01-17T23:51:16.708Z,25.60
2023-01-17T23:53:43.745Z,23.60
2023-01-17T23:56:15.472Z,23.00
2023-01-17T23:58:42.341Z,23.90
